Time;durP1;ratioP1;P1;durP2;ratioP2;P2;SDS_P1;SDS_P2;PMS_P1;PMS_P2;Temp;Humidity;BMP_temperature;BMP_pressure;BME280_temperature;BME280_humidity;BME280_pressure;Samples;Min_cycle;Max_cycle;Signal;HPM_P1;HPM_P2
2022/11/25 12:50:32;;;;;;;14.47;8.85;;;14.00;90.10;;;;;;1958922;73;25791;-43
2022/11/25 12:53:04;;;;;;;13.83;8.35;;;14.10;90.50;;;;;;1917318;74;21112;-42
2022/11/25 12:55:34;;;;;;;11.75;8.33;;;14.10;89.10;;;;;;1918036;74;21019;-43
2022/11/25 12:58:23;;;;;;;15.53;9.00;;;14.00;88.70;;;;;;1918478;75;21073;-42
2022/11/25 13:01:02;;;;;;;11.90;7.87;;;13.90;88.90;;;;;;1918391;75;21050;-43
2022/11/25 13:03:59;;;;;;;12.60;8.48;;;13.70;89.40;;;;;;1865512;74;21157;-42
2022/11/25 13:06:43;;;;;;;13.50;8.15;;;13.60;89.80;;;;;;1917256;74;21156;-43
2022/11/25 13:09:18;;;;;;;14.65;8.80;;;13.50;90.10;;;;;;1918384;75;21050;-43
2022/11/25 13:12:06;;;;;;;17.25;10.68;;;13.30;90.10;;;;;;1918590;75;21489;-45
2022/11/25 13:14:56;;;;;;;17.62;9.13;;;13.30;90.40;;;;;;1918447;75;21039;-42
2022/11/25 13:17:27;;;;;;;15.45;8.95;;;13.20;90.30;;;;;;1894876;75;21015;-42
2022/11/25 13:20:25;;;;;;;16.15;9.65;;;13.20;90.40;;;;;;1918474;74;21078;-42
2022/11/25 13:23:09;;;;;;;14.75;8.88;;;13.20;90.40;;;;;;1918390;75;21080;-41
2022/11/25 13:25:40;;;;;;;14.67;8.17;;;13.20;90.40;;;;;;1918737;75;21164;-42
2022/11/25 13:28:34;;;;;;;11.78;8.23;;;13.10;90.50;;;;;;1918446;75;21130;-43
2022/11/25 13:31:24;;;;;;;16.05;8.95;;;13.10;90.60;;;;;;1918290;75;21129;-42
2022/11/25 13:33:59;;;;;;;21.10;10.15;;;13.00;90.60;;;;;;1918285;75;21085;-42
2022/11/25 13:36:45;;;;;;;12.95;8.13;;;13.00;90.70;;;;;;1918330;74;21059;-44
2022/11/25 13:39:19;;;;;;;17.85;9.20;;;13.10;90.70;;;;;;1918191;74;21019;-44
2022/11/25 13:41:51;;;;;;;11.93;9.10;;;13.00;90.60;;;;;;1879124;76;21092;-42
2022/11/25 13:44:24;;;;;;;19.87;10.05;;;13.00;90.60;;;;;;1879578;76;21577;-43
2022/11/25 13:46:55;;;;;;;13.50;9.30;;;12.90;90.80;;;;;;1865970;77;21072;-43
2022/11/25 13:49:51;;;;;;;15.40;10.00;;;12.90;90.70;;;;;;1844566;78;21110;-42
2022/11/25 13:52:39;;;;;;;24.40;10.70;;;12.80;90.80;;;;;;1905962;74;21095;-42
2022/11/25 13:55:19;;;;;;;22.62;10.00;;;12.80;90.90;;;;;;1905357;74;21579;-43
2022/11/25 13:58:01;;;;;;;18.45;10.63;;;12.80;91.00;;;;;;1905883;74;21087;-45
2022/11/25 14:00:39;;;;;;;21.15;13.45;;;12.80;91.00;;;;;;1905005;74;21102;-45
2022/11/25 14:03:22;;;;;;;19.32;11.33;;;12.80;91.10;;;;;;1905278;75;21150;-43
2022/11/25 14:06:10;;;;;;;18.57;10.32;;;12.90;91.20;;;;;;1905362;75;21692;-43
2022/11/25 14:09:04;;;;;;;27.20;12.80;;;12.90;91.20;;;;;;1905358;74;21139;-44
2022/11/25 14:11:45;;;;;;;28.73;11.53;;;12.90;91.20;;;;;;1905121;75;21102;-43
2022/11/25 14:14:35;;;;;;;22.98;10.25;;;12.90;91.10;;;;;;1904412;74;21008;-43
2022/11/25 14:17:28;;;;;;;34.98;14.00;;;12.80;91.20;;;;;;1904989;74;21106;-44
2022/11/25 14:20:09;;;;;;;46.80;27.77;;;12.80;91.30;;;;;;1905138;75;21103;-43
2022/11/25 14:23:00;;;;;;;26.77;14.73;;;12.80;91.20;;;;;;1879196;74;21047;-43
2022/11/25 14:25:35;;;;;;;24.47;12.50;;;12.80;91.30;;;;;;1905238;75;21162;-41
2022/11/25 14:28:05;;;;;;;;;;;12.70;91.20;;;;;;1906549;74;21148;-42
2022/11/25 14:30:36;;;;;;;29.30;14.10;;;12.60;91.20;;;;;;1905132;75;20540;-42
2022/11/25 14:33:08;;;;;;;19.15;11.73;;;12.50;91.10;;;;;;1904738;74;21027;-42
2022/11/25 14:35:46;;;;;;;24.10;13.22;;;12.40;91.30;;;;;;1905277;74;21088;-43
2022/11/25 14:38:17;;;;;;;30.27;15.40;;;12.40;91.40;;;;;;1904889;74;21217;-44
2022/11/25 14:41:02;;;;;;;33.73;17.07;;;12.40;91.50;;;;;;1905125;75;21103;-43
2022/11/25 14:43:34;;;;;;;44.70;20.60;;;12.30;91.50;;;;;;1905236;74;21200;-42
2022/11/25 14:46:19;;;;;;;44.93;23.50;;;12.30;91.60;;;;;;1904984;74;21055;-44
2022/11/25 14:48:56;;;;;;;59.18;29.00;;;12.30;91.60;;;;;;1905194;75;21656;-42
2022/11/25 14:51:28;;;;;;;54.58;29.20;;;12.30;91.60;;;;;;1905261;74;21051;-43
2022/11/25 14:53:58;;;;;;;48.38;23.77;;;12.30;91.70;;;;;;1905384;75;21190;-43
2022/11/25 14:56:33;;;;;;;46.18;24.52;;;12.20;91.70;;;;;;1905244;75;21331;-43
2022/11/25 14:59:03;;;;;;;49.83;24.23;;;12.30;91.80;;;;;;1905314;74;21138;-41
2022/11/25 15:01:35;;;;;;;36.65;20.92;;;12.30;91.80;;;;;;1905283;75;21115;-43
2022/11/25 15:04:12;;;;;;;36.28;19.73;;;12.30;91.90;;;;;;1905363;75;21205;-41
2022/11/25 15:06:43;;;;;;;47.90;21.17;;;12.30;91.80;;;;;;1905364;75;21245;-43
2022/11/25 15:09:25;;;;;;;35.25;16.37;;;12.30;91.90;;;;;;1905229;74;21111;-42
2022/11/25 15:12:00;;;;;;;36.58;17.12;;;12.20;91.90;;;;;;1905462;75;21016;-42
2022/11/25 15:14:31;;;;;;;25.35;12.90;;;12.20;91.90;;;;;;1905529;74;21573;-43
2022/11/25 15:17:02;;;;;;;20.72;12.35;;;12.20;92.00;;;;;;1905329;74;21178;-45
2022/11/25 15:19:34;;;;;;;38.17;17.75;;;12.10;92.00;;;;;;1905250;74;21616;-44
2022/11/25 15:22:05;;;;;;;39.42;18.05;;;12.10;92.10;;;;;;1905371;75;21640;-43
2022/11/25 15:24:42;;;;;;;53.78;18.57;;;12.10;92.10;;;;;;1905316;75;21099;-43
2022/11/25 15:27:26;;;;;;;67.42;22.85;;;12.10;92.10;;;;;;1905394;74;21106;-42
2022/11/25 15:29:56;;;;;;;54.35;19.77;;;12.10;92.10;;;;;;1905366;75;21264;-43
2022/11/25 15:32:31;;;;;;;34.75;15.50;;;12.10;92.20;;;;;;1905311;74;21184;-42
2022/11/25 15:35:01;;;;;;;45.52;14.63;;;12.10;92.30;;;;;;1905413;75;21208;-45
2022/11/25 15:37:31;;;;;;;29.50;13.88;;;12.10;92.40;;;;;;1905449;75;21197;-46
2022/11/25 15:40:31;;;;;;;37.93;16.27;;;12.10;92.30;;;;;;1905295;74;21079;-43
2022/11/25 15:43:02;;;;;;;33.02;14.93;;;12.10;92.30;;;;;;1905325;75;21183;-43
2022/11/25 15:45:48;;;;;;;46.23;16.55;;;12.00;92.30;;;;;;1905290;74;21210;-44
2022/11/25 15:48:28;;;;;;;58.52;19.82;;;12.00;92.20;;;;;;1905346;75;21212;-42
2022/11/25 15:51:06;;;;;;;49.00;17.02;;;11.90;92.20;;;;;;1905092;74;21287;-43
2022/11/25 15:53:38;;;;;;;94.87;36.13;;;11.90;92.30;;;;;;1905242;75;21178;-43
2022/11/25 15:56:10;;;;;;;96.35;40.92;;;11.90;92.40;;;;;;1905286;74;21311;-43
2022/11/25 15:58:41;;;;;;;58.25;26.93;;;11.80;92.40;;;;;;1905239;75;21131;-44
2022/11/25 16:01:19;;;;;;;62.35;29.25;;;11.80;92.50;;;;;;1905253;75;21178;-43
2022/11/25 16:03:49;;;;;;;45.75;26.25;;;11.80;92.60;;;;;;1905297;75;21213;-44
2022/11/25 16:06:26;;;;;;;29.48;16.02;;;11.80;92.70;;;;;;1905374;75;21142;-45
2022/11/25 16:08:57;;;;;;;42.33;16.40;;;11.80;92.70;;;;;;1905361;75;21083;-47
2022/11/25 16:11:35;;;;;;;34.75;15.55;;;11.90;92.60;;;;;;1905404;75;21174;-43
2022/11/25 16:14:27;;;;;;;65.65;23.55;;;11.80;92.60;;;;;;1904597;74;21357;-44
2022/11/25 16:17:07;;;;;;;54.38;19.98;;;11.80;92.70;;;;;;1905245;75;21265;-43
2022/11/25 16:19:42;;;;;;;33.25;18.32;;;11.90;92.70;;;;;;1905158;74;21069;-44
2022/11/25 16:22:17;;;;;;;36.68;16.75;;;11.80;92.60;;;;;;1905424;75;21144;-44
2022/11/25 16:24:55;;;;;;;38.42;13.88;;;11.80;92.70;;;;;;1905297;74;21694;-46
2022/11/25 16:27:27;;;;;;;45.38;19.40;;;11.80;92.70;;;;;;1905116;75;21197;-43
2022/11/25 16:30:08;;;;;;;40.28;15.85;;;11.70;92.60;;;;;;1905280;75;21210;-44
2022/11/25 16:32:37;;;;;;;29.90;15.13;;;11.60;92.60;;;;;;1905159;75;21202;-45
2022/11/25 16:35:20;;;;;;;28.40;14.40;;;11.60;92.70;;;;;;1905204;75;21032;-46
2022/11/25 16:37:49;;;;;;;40.63;15.03;;;11.60;92.80;;;;;;1905309;74;21047;-45
2022/11/25 16:40:19;;;;;;;41.40;16.00;;;11.60;92.80;;;;;;1905154;74;21169;-43
2022/11/25 16:42:49;;;;;;;33.18;16.07;;;11.60;92.90;;;;;;1905185;74;21190;-43
2022/11/25 16:45:27;;;;;;;36.45;16.42;;;11.60;93.00;;;;;;1905279;75;21146;-43
2022/11/25 16:47:56;;;;;;;40.80;17.57;;;11.60;92.90;;;;;;1905188;75;21106;-42
2022/11/25 16:50:25;;;;;;;40.83;16.73;;;11.60;92.90;;;;;;1905059;74;21122;-42
2022/11/25 16:52:54;;;;;;;25.48;12.68;;;11.60;92.90;;;;;;1905224;75;21153;-44
2022/11/25 16:55:24;;;;;;;29.55;14.43;;;11.60;92.90;;;;;;1905155;75;21210;-43
2022/11/25 16:57:54;;;;;;;27.35;13.08;;;11.60;93.00;;;;;;1905184;75;21269;-43
2022/11/25 17:00:23;;;;;;;35.78;15.23;;;11.60;93.00;;;;;;1905122;75;21130;-41
2022/11/25 17:02:52;;;;;;;31.77;14.07;;;11.60;93.10;;;;;;1905330;75;21240;-43
2022/11/25 17:05:25;;;;;;;28.07;13.22;;;11.60;93.10;;;;;;1905239;74;21083;-43
2022/11/25 17:07:55;;;;;;;23.98;13.00;;;11.60;93.10;;;;;;1905240;75;21166;-42
2022/11/25 17:10:25;;;;;;;33.05;15.55;;;11.60;93.10;;;;;;1905317;75;21172;-43
2022/11/25 17:12:55;;;;;;;37.17;14.83;;;11.60;93.40;;;;;;1905093;74;21250;-42
2022/11/25 17:15:27;;;;;;;33.92;15.65;;;11.50;93.00;;;;;;1905168;75;21134;-44
2022/11/25 17:17:56;;;;;;;24.90;14.93;;;11.50;93.00;;;;;;1904382;74;21191;-42
2022/11/25 17:20:26;;;;;;;29.77;16.27;;;11.40;92.90;;;;;;1905105;75;21319;-43
2022/11/25 17:22:55;;;;;;;28.98;16.67;;;11.30;93.00;;;;;;1905219;75;21375;-42
2022/11/25 17:25:26;;;;;;;29.90;15.60;;;11.30;93.10;;;;;;1905036;75;21138;-42
2022/11/25 17:27:56;;;;;;;21.93;14.45;;;11.30;93.20;;;;;;1905089;75;21075;-42
2022/11/25 17:30:27;;;;;;;29.52;15.50;;;11.30;93.30;;;;;;1905079;75;21118;-41
2022/11/25 17:33:02;;;;;;;36.10;16.32;;;11.40;93.30;;;;;;1905276;75;21142;-43
2022/11/25 17:35:32;;;;;;;54.08;17.80;;;11.40;93.30;;;;;;1905383;75;21131;-42
2022/11/25 17:38:01;;;;;;;67.60;25.80;;;11.40;93.30;;;;;;1905469;74;21117;-43
2022/11/25 17:40:30;;;;;;;51.63;26.30;;;11.30;93.30;;;;;;1905439;74;21554;-44
2022/11/25 17:42:59;;;;;;;42.08;19.75;;;11.30;93.30;;;;;;1905485;75;21063;-43
2022/11/25 17:45:29;;;;;;;40.75;19.62;;;11.30;93.30;;;;;;1905535;75;21130;-43
2022/11/25 17:47:57;;;;;;;28.95;15.65;;;11.40;93.30;;;;;;1905413;75;21083;-45
2022/11/25 17:50:27;;;;;;;26.27;14.13;;;11.30;93.30;;;;;;1905571;75;21264;-43
2022/11/25 17:52:56;;;;;;;25.12;12.65;;;11.30;93.30;;;;;;1921871;74;21227;-45
2022/11/25 17:55:26;;;;;;;33.53;12.47;;;11.30;93.30;;;;;;1925013;74;21195;-44
2022/11/25 17:57:55;;;;;;;28.05;11.50;;;11.30;93.40;;;;;;1925009;74;21158;-44
2022/11/25 18:00:24;;;;;;;27.42;13.03;;;11.30;93.50;;;;;;1924760;74;21469;-43
2022/11/25 18:02:53;;;;;;;25.32;13.48;;;11.40;93.60;;;;;;1924802;74;21556;-42
2022/11/25 18:05:27;;;;;;;21.75;11.00;;;11.40;93.60;;;;;;1924770;74;21183;-41
2022/11/25 18:07:56;;;;;;;22.58;11.60;;;11.40;93.60;;;;;;1925008;74;21212;-44
2022/11/25 18:10:26;;;;;;;26.57;13.75;;;11.40;93.60;;;;;;1924801;74;21126;-43
2022/11/25 18:12:56;;;;;;;23.27;10.53;;;11.40;93.50;;;;;;1924870;74;21346;-42
2022/11/25 18:15:29;;;;;;;17.37;10.35;;;11.40;93.40;;;;;;1924809;74;21126;-42
2022/11/25 18:18:19;;;;;;;20.75;9.78;;;11.30;93.30;;;;;;1924767;74;21133;-44
2022/11/25 18:20:49;;;;;;;17.02;8.33;;;11.30;93.40;;;;;;1924775;74;21158;-43
2022/11/25 18:23:18;;;;;;;19.37;8.70;;;11.20;93.40;;;;;;1924788;74;21326;-42
2022/11/25 18:25:47;;;;;;;20.32;9.35;;;11.20;93.50;;;;;;1931333;74;21197;-44
2022/11/25 18:28:21;;;;;;;15.88;9.03;;;11.20;93.50;;;;;;1924795;74;21603;-42
2022/11/25 18:30:53;;;;;;;16.23;8.93;;;11.20;93.70;;;;;;1925035;74;21263;-42
2022/11/25 18:33:22;;;;;;;21.40;9.20;;;11.30;93.60;;;;;;1931251;74;21139;-42
2022/11/25 18:35:51;;;;;;;21.73;9.20;;;11.20;93.50;;;;;;1924809;74;21195;-42
2022/11/25 18:38:20;;;;;;;22.35;10.08;;;11.20;93.50;;;;;;1924777;74;21027;-42
2022/11/25 18:40:49;;;;;;;30.75;11.18;;;11.20;93.50;;;;;;1924845;74;21207;-42
2022/11/25 18:43:24;;;;;;;21.62;10.35;;;11.20;93.60;;;;;;1924782;74;21213;-43
2022/11/25 18:45:53;;;;;;;;;;;11.20;93.50;;;;;;1927673;74;21094;-42
2022/11/25 18:48:24;;;;;;;20.48;9.68;;;11.20;93.70;;;;;;1924785;74;20750;-42
2022/11/25 18:50:56;;;;;;;19.60;9.88;;;11.10;93.40;;;;;;1924858;74;21154;-44
2022/11/25 18:53:25;;;;;;;26.82;9.75;;;11.10;93.50;;;;;;1924831;74;21284;-43
2022/11/25 18:55:54;;;;;;;20.40;9.65;;;11.10;93.60;;;;;;1924890;74;21592;-43
2022/11/25 18:58:31;;;;;;;27.75;9.98;;;11.10;93.60;;;;;;1924879;74;21485;-43
2022/11/25 19:01:05;;;;;;;15.35;9.08;;;11.10;93.60;;;;;;1931335;74;21192;-42
2022/11/25 19:03:34;;;;;;;24.05;10.80;;;11.10;93.70;;;;;;1924899;74;21195;-43
2022/11/25 19:06:04;;;;;;;18.62;10.70;;;11.20;93.70;;;;;;1925013;74;21010;-42
2022/11/25 19:08:33;;;;;;;21.02;11.03;;;11.20;93.60;;;;;;1924726;74;21289;-42
2022/11/25 19:11:02;;;;;;;19.73;11.00;;;11.20;93.70;;;;;;1924730;74;21240;-45
2022/11/25 19:13:34;;;;;;;19.70;9.38;;;11.20;93.70;;;;;;1924870;74;21070;-43
2022/11/25 19:16:06;;;;;;;18.67;10.20;;;11.20;93.70;;;;;;1924764;74;21342;-43
2022/11/25 19:18:35;;;;;;;25.60;9.45;;;11.20;93.80;;;;;;1924022;74;21133;-43
2022/11/25 19:21:05;;;;;;;24.18;10.90;;;11.20;93.80;;;;;;1924778;74;21220;-43
2022/11/25 19:23:34;;;;;;;19.10;9.53;;;11.30;93.80;;;;;;1924828;74;21149;-43
2022/11/25 19:26:06;;;;;;;23.77;10.28;;;11.30;93.90;;;;;;1931211;74;21099;-44
2022/11/25 19:28:36;;;;;;;18.30;9.70;;;11.30;93.90;;;;;;1924567;74;21334;-43
2022/11/25 19:31:06;;;;;;;20.48;10.70;;;11.30;93.80;;;;;;1931261;74;21149;-43
2022/11/25 19:33:37;;;;;;;14.80;9.60;;;11.30;93.90;;;;;;1924773;74;21070;-42
2022/11/25 19:36:06;;;;;;;27.20;10.60;;;11.30;93.90;;;;;;1931250;74;21192;-42
2022/11/25 19:38:35;;;;;;;26.15;10.28;;;11.30;93.90;;;;;;1924720;74;21143;-43
2022/11/25 19:41:04;;;;;;;24.30;11.20;;;11.40;93.90;;;;;;1924754;74;21065;-42
2022/11/25 19:43:34;;;;;;;18.27;9.98;;;11.40;93.90;;;;;;1924832;74;21307;-42
2022/11/25 19:46:03;;;;;;;17.73;10.48;;;11.40;93.90;;;;;;1931223;74;21572;-43
2022/11/25 19:48:35;;;;;;;15.90;10.10;;;11.40;93.90;;;;;;1924709;74;21197;-42
2022/11/25 19:51:04;;;;;;;24.15;11.73;;;11.40;93.90;;;;;;1924828;74;21645;-42
2022/11/25 19:53:34;;;;;;;17.30;9.88;;;11.40;93.90;;;;;;1913143;74;21176;-43
2022/11/25 19:56:03;;;;;;;18.65;10.98;;;11.40;93.90;;;;;;1905354;75;21173;-42
2022/11/25 19:58:33;;;;;;;16.27;10.13;;;11.40;93.90;;;;;;1905290;75;21382;-42
2022/11/25 20:01:04;;;;;;;19.32;10.68;;;11.40;93.80;;;;;;1905438;75;21077;-43
2022/11/25 20:03:35;;;;;;;25.77;11.83;;;11.40;93.90;;;;;;1905369;75;21142;-44
2022/11/25 20:06:05;;;;;;;19.48;9.85;;;11.30;93.90;;;;;;1905333;74;21130;-44
2022/11/25 20:08:34;;;;;;;22.40;10.23;;;11.40;93.90;;;;;;1905352;74;21083;-42
2022/11/25 20:11:04;;;;;;;20.05;10.72;;;11.30;93.80;;;;;;1905356;75;21079;-42
2022/11/25 20:13:33;;;;;;;20.62;9.58;;;11.30;93.60;;;;;;1905352;75;21027;-43
2022/11/25 20:16:02;;;;;;;14.38;9.73;;;11.20;93.60;;;;;;1905319;74;21257;-43
2022/11/25 20:18:32;;;;;;;17.95;9.85;;;11.20;93.60;;;;;;1905321;75;21178;-42
2022/11/25 20:21:03;;;;;;;18.75;10.10;;;11.10;93.60;;;;;;1905368;75;21150;-45
2022/11/25 20:23:46;;;;;;;18.80;9.78;;;11.10;93.60;;;;;;1905366;75;21258;-43
2022/11/25 20:26:18;;;;;;;21.68;9.88;;;11.00;93.70;;;;;;1904468;74;21204;-42
2022/11/25 20:28:47;;;;;;;17.40;10.48;;;11.00;93.80;;;;;;1905151;74;21206;-44
2022/11/25 20:31:16;;;;;;;20.37;10.45;;;11.00;94.00;;;;;;1905277;75;21714;-44
2022/11/25 20:33:47;;;;;;;20.02;10.58;;;11.10;94.00;;;;;;1905301;75;21135;-43
2022/11/25 20:36:18;;;;;;;20.23;11.80;;;11.10;93.90;;;;;;1905431;75;21186;-43
2022/11/25 20:38:51;;;;;;;18.57;11.08;;;11.10;93.80;;;;;;1905360;75;21083;-42
2022/11/25 20:41:22;;;;;;;18.32;11.22;;;11.10;93.80;;;;;;1905335;75;21246;-42
2022/11/25 20:43:51;;;;;;;21.35;11.78;;;11.00;93.80;;;;;;1905424;75;21279;-41
2022/11/25 20:46:22;;;;;;;22.17;11.05;;;11.00;93.80;;;;;;1905436;75;21118;-43
2022/11/25 20:48:57;;;;;;;18.98;11.18;;;10.90;93.70;;;;;;1904662;74;21067;-42
2022/11/25 20:51:26;;;;;;;21.30;11.25;;;10.90;93.70;;;;;;1905480;74;21035;-42
2022/11/25 20:54:00;;;;;;;24.18;11.00;;;10.90;93.80;;;;;;1905231;74;21212;-42
2022/11/25 20:56:30;;;;;;;20.50;11.18;;;10.90;93.80;;;;;;1905307;74;21368;-42
2022/11/25 20:58:59;;;;;;;20.57;11.65;;;10.90;93.90;;;;;;1905280;75;21194;-42
2022/11/25 21:01:28;;;;;;;17.77;10.90;;;10.90;93.90;;;;;;1905310;75;21194;-43
2022/11/25 21:03:57;;;;;;;22.25;12.50;;;10.90;93.90;;;;;;1905320;75;21130;-43
2022/11/25 21:06:29;;;;;;;21.40;11.30;;;10.90;93.80;;;;;;1905325;75;21192;-43
2022/11/25 21:09:00;;;;;;;20.27;11.45;;;10.90;93.80;;;;;;1905311;74;21373;-44
2022/11/25 21:11:31;;;;;;;26.07;13.48;;;10.80;93.80;;;;;;1905479;74;21078;-44
2022/11/25 21:14:00;;;;;;;22.87;12.60;;;10.80;94.00;;;;;;1905566;75;21482;-42
2022/11/25 21:16:29;;;;;;;21.82;12.95;;;10.80;94.00;;;;;;1905437;74;21252;-43
2022/11/25 21:18:58;;;;;;;23.77;12.13;;;10.70;94.10;;;;;;1905368;75;21173;-42
2022/11/25 21:21:30;;;;;;;22.20;11.73;;;10.80;94.20;;;;;;1905473;74;21067;-44
2022/11/25 21:24:02;;;;;;;19.00;11.12;;;10.80;94.20;;;;;;1905559;74;21159;-43
2022/11/25 21:26:31;;;;;;;19.25;11.43;;;10.80;94.20;;;;;;1904672;74;21285;-42
2022/11/25 21:29:00;;;;;;;20.70;12.88;;;10.80;94.20;;;;;;1905374;75;21675;-42
2022/11/25 21:31:30;;;;;;;23.67;12.45;;;10.90;94.30;;;;;;1905370;75;21506;-42
2022/11/25 21:34:01;;;;;;;17.50;10.55;;;10.90;94.30;;;;;;1905519;75;21244;-42
2022/11/25 21:36:31;;;;;;;17.48;11.10;;;10.90;94.30;;;;;;1905463;75;21135;-42
2022/11/25 21:39:05;;;;;;;19.32;12.28;;;10.90;94.30;;;;;;1905483;75;21083;-43
2022/11/25 21:41:35;;;;;;;22.07;11.70;;;10.90;94.30;;;;;;1905698;75;21133;-42
2022/11/25 21:44:06;;;;;;;22.05;12.43;;;10.90;94.30;;;;;;1905432;75;21114;-42
2022/11/25 21:46:35;;;;;;;21.57;12.70;;;10.90;94.30;;;;;;1905445;75;21158;-43
2022/11/25 21:49:10;;;;;;;23.42;11.95;;;11.00;94.40;;;;;;1905363;75;21245;-43
2022/11/25 21:51:39;;;;;;;28.52;12.80;;;11.00;94.40;;;;;;1905526;75;21047;-43
2022/11/25 21:54:09;;;;;;;20.48;11.97;;;11.00;94.30;;;;;;1911936;74;21154;-42
2022/11/25 21:56:39;;;;;;;19.40;11.03;;;10.90;94.20;;;;;;1924820;74;21046;-42
2022/11/25 21:59:09;;;;;;;22.93;12.82;;;10.90;94.30;;;;;;1924765;74;21252;-44
2022/11/25 22:01:38;;;;;;;22.75;12.25;;;10.90;94.30;;;;;;1924434;74;21194;-44
2022/11/25 22:04:10;;;;;;;19.15;12.90;;;10.90;94.20;;;;;;1924747;74;21137;-43
2022/11/25 22:06:39;;;;;;;23.20;12.58;;;10.80;94.10;;;;;;1922851;74;21153;-44
2022/11/25 22:09:09;;;;;;;21.50;12.82;;;10.80;94.40;;;;;;1924787;74;21154;-43
2022/11/25 22:11:41;;;;;;;21.42;12.18;;;10.70;94.20;;;;;;1924795;74;21193;-44
2022/11/25 22:14:18;;;;;;;22.27;11.50;;;10.70;94.20;;;;;;1924813;74;21165;-43
2022/11/25 22:16:47;;;;;;;28.00;12.95;;;10.70;94.20;;;;;;1920618;74;21275;-42
2022/11/25 22:19:22;;;;;;;23.18;12.50;;;10.70;94.20;;;;;;1924843;74;21106;-42
2022/11/25 22:21:51;;;;;;;23.65;13.10;;;10.70;94.20;;;;;;1924736;74;21200;-44
2022/11/25 22:24:21;;;;;;;21.10;12.82;;;10.70;94.30;;;;;;1924749;74;21223;-43
2022/11/25 22:26:52;;;;;;;29.18;12.68;;;10.70;94.30;;;;;;1924785;74;21243;-44
2022/11/25 22:29:24;;;;;;;25.20;13.75;;;10.80;94.30;;;;;;1924894;74;21330;-42
2022/11/25 22:31:53;;;;;;;18.95;12.15;;;10.70;94.20;;;;;;1924719;74;21130;-44
2022/11/25 22:34:24;;;;;;;21.57;12.33;;;10.70;94.20;;;;;;1924902;74;21199;-43
2022/11/25 22:36:53;;;;;;;23.10;13.90;;;10.70;94.20;;;;;;1924789;74;21267;-43
2022/11/25 22:39:24;;;;;;;22.13;13.68;;;10.80;94.30;;;;;;1924777;74;21197;-42
2022/11/25 22:41:55;;;;;;;25.32;12.93;;;10.80;94.40;;;;;;1924807;74;21203;-43
2022/11/25 22:44:27;;;;;;;28.52;12.68;;;10.90;94.40;;;;;;1924731;74;21177;-42
2022/11/25 22:46:56;;;;;;;23.62;11.83;;;10.90;94.40;;;;;;1924363;74;21636;-42
2022/11/25 22:49:37;;;;;;;18.98;11.50;;;10.90;94.40;;;;;;1924872;74;21193;-42
2022/11/25 22:52:08;;;;;;;25.80;13.03;;;10.90;94.40;;;;;;1924318;74;21221;-43
2022/11/25 22:54:37;;;;;;;22.65;12.85;;;10.90;94.30;;;;;;1923690;74;21358;-46
2022/11/25 22:57:07;;;;;;;21.20;12.58;;;10.90;94.40;;;;;;1924703;74;21255;-42
2022/11/25 22:59:36;;;;;;;21.12;12.25;;;10.90;94.40;;;;;;1924797;74;21257;-42
2022/11/25 23:02:06;;;;;;;29.25;13.70;;;10.90;94.30;;;;;;1924776;74;21287;-43
2022/11/25 23:04:35;;;;;;;22.52;13.48;;;10.80;94.40;;;;;;1924881;74;21148;-43
2022/11/25 23:07:07;;;;;;;24.67;14.35;;;10.90;94.40;;;;;;1924750;74;21167;-44
2022/11/25 23:09:36;;;;;;;30.70;14.20;;;10.90;94.30;;;;;;1924588;74;21240;-44
2022/11/25 23:12:06;;;;;;;25.92;15.25;;;10.90;94.40;;;;;;1924729;74;21061;-42
2022/11/25 23:14:35;;;;;;;36.33;17.32;;;10.90;94.40;;;;;;1924750;74;21229;-41
2022/11/25 23:17:05;;;;;;;34.45;17.02;;;10.80;94.30;;;;;;1924840;74;21274;-42
2022/11/25 23:19:35;;;;;;;31.82;17.10;;;10.80;94.30;;;;;;1924795;74;21137;-43
2022/11/25 23:22:07;;;;;;;28.00;17.00;;;10.80;94.20;;;;;;1924757;74;21185;-42
2022/11/25 23:24:36;;;;;;;26.82;15.60;;;10.70;94.30;;;;;;1924748;74;21185;-42
2022/11/25 23:27:05;;;;;;;31.30;16.32;;;10.80;94.60;;;;;;1924748;74;21166;-43
2022/11/25 23:29:34;;;;;;;30.82;15.38;;;10.80;94.40;;;;;;1924870;74;21264;-45
2022/11/25 23:32:06;;;;;;;31.70;16.15;;;10.80;94.50;;;;;;1924705;74;21197;-43
2022/11/25 23:34:35;;;;;;;38.35;17.70;;;10.90;94.50;;;;;;1924715;74;21259;-42
2022/11/25 23:37:04;;;;;;;29.67;15.70;;;10.90;94.50;;;;;;1924831;74;21177;-44
2022/11/25 23:39:34;;;;;;;29.98;17.25;;;10.90;94.40;;;;;;1924759;74;21196;-43
2022/11/25 23:42:03;;;;;;;26.02;15.70;;;10.80;94.30;;;;;;1924801;74;21178;-44
2022/11/25 23:44:32;;;;;;;29.92;16.40;;;10.80;94.30;;;;;;1924745;74;21149;-43
2022/11/25 23:47:04;;;;;;;28.98;15.65;;;10.80;94.50;;;;;;1924713;74;21252;-44
2022/11/25 23:49:39;;;;;;;32.67;17.27;;;10.80;94.50;;;;;;1924796;74;21152;-42
2022/11/25 23:52:10;;;;;;;25.35;15.32;;;10.80;94.50;;;;;;1923850;74;21314;-43
2022/11/25 23:54:42;;;;;;;29.87;16.62;;;10.80;94.50;;;;;;1923757;74;21221;-42
2022/11/25 23:57:23;;;;;;;21.97;14.53;;;10.70;94.40;;;;;;1905348;75;21224;-43
2022/11/25 23:59:52;;;;;;;31.02;17.20;;;10.70;94.40;;;;;;1905402;74;21128;-41
